Austin, TX (78772)

5:44 PM CST on February 13, 2016 (GMT -0600)
Dawson - Gumbo Gulch | | Change Station
CLOSE
Current Station
Personal Weather Station
Location: Austin, TX
Elevation: 614 ft
Nearby Weather Stations

Elev 614 ft 30.23 °N, 97.76 °W | Updated 37 seconds ago

Clear
Clear
71.0 °F
Feels Like 76 °F
N
5.0
Wind Variable Wind from SSE
Gusts 9.0 mph

Today
High -- | Low -- °F
--% Chance of Precip.
Yesterday
High -- | Low -- °F
Precip. -- in
Pressure 30.16 in
Visibility 10.0 miles
Clouds Few 4500 ft
Few 25000 ft
Heat Index 76 °F
Dew Point 54 °F
Humidity 56%
Rainfall 0.00 in
Snow Depth Not available.
7:13 AM 6:17 PM
Waxing Crescent, 35% visible
METAR KAUS 132253Z 16015G18KT 10SM FEW045 FEW250 22/11 A3017 RMK AO2 SLP213 T02220111
Pressure 30.16 in
Visibility 10.0 miles
Clouds Few 4500 ft
Few 25000 ft
Heat Index 76 °F
Dew Point 54 °F
Humidity 56%
Rainfall 0.00 in
Snow Depth Not available.
7:13 AM 6:17 PM
Waxing Crescent, 35% visible
METAR KAUS 132253Z 16015G18KT 10SM FEW045 FEW250 22/11 A3017 RMK AO2 SLP213 T02220111

10-Day Weather Forecast

Almanac

Astronomy

Feb. 13, 2016 Rise Set
Actual Time
Civil Twilight
Nautical Twilight
Astronomical Twilight
Moon
Length of Visible Light
Length of Day
Tomorrow will be .
, % of the Moon is Illuminated

Today's Extremes

State Highs State Lows

Community

WunderPhotos

Upload Photos

1,892,705 photos uploaded!

WunderBlog® & News

Nearby

Air Quality

  Air Quality AQ Index Pollutant
Not available.

Snow Depth

Station Depth Elevation

Earthquake Activity

City Distance Mag. Time & Date
Minimum magnitude displayed is 2.5.

Coastal Water Temperatures

Place Temperature

Stations

Nearby Weather Stations

Station Location Temp. Windchill Dew Point Humidity Wind Precip. Elev Updated Type
                   

Watches & Warnings

There are currently no watches in effect.